sensor_id;sensor_type;location;lat;lon;timestamp;temperature;humidity
2487;DHT22;1254;49.144;8.212;2022-09-03T00:01:26;19.40;99.90
2487;DHT22;1254;49.144;8.212;2022-09-03T00:04:01;19.40;99.90
2487;DHT22;1254;49.144;8.212;2022-09-03T00:06:42;19.40;99.90
2487;DHT22;1254;49.144;8.212;2022-09-03T00:09:15;19.40;99.90
2487;DHT22;1254;49.144;8.212;2022-09-03T00:14:24;19.50;99.90
2487;DHT22;1254;49.144;8.212;2022-09-03T00:16:53;19.40;99.90
2487;DHT22;1254;49.144;8.212;2022-09-03T00:19:34;19.30;99.90
2487;DHT22;1254;49.144;8.212;2022-09-03T00:22:09;19.20;99.90
2487;DHT22;1254;49.144;8.212;2022-09-03T00:24:40;19.10;99.90
2487;DHT22;1254;49.144;8.212;2022-09-03T00:27:13;19.10;99.90
2487;DHT22;1254;49.144;8.212;2022-09-03T00:29:51;19.10;99.90
2487;DHT22;1254;49.144;8.212;2022-09-03T00:32:24;19.10;99.90
2487;DHT22;1254;49.144;8.212;2022-09-03T00:35:03;19.10;99.90
2487;DHT22;1254;49.144;8.212;2022-09-03T00:37:31;19.00;99.90
2487;DHT22;1254;49.144;8.212;2022-09-03T00:39:59;19.00;99.90
2487;DHT22;1254;49.144;8.212;2022-09-03T00:42:38;18.90;99.90
2487;DHT22;1254;49.144;8.212;2022-09-03T00:45:17;18.80;99.90
2487;DHT22;1254;49.144;8.212;2022-09-03T00:53:52;18.70;99.90
2487;DHT22;1254;49.144;8.212;2022-09-03T00:57:18;18.70;99.90
2487;DHT22;1254;49.144;8.212;2022-09-03T00:59:44;18.60;99.90
2487;DHT22;1254;49.144;8.212;2022-09-03T01:02:24;18.60;99.90
2487;DHT22;1254;49.144;8.212;2022-09-03T01:16:41;18.50;99.90
2487;DHT22;1254;49.144;8.212;2022-09-03T01:25:03;18.40;99.90
2487;DHT22;1254;49.144;8.212;2022-09-03T01:30:44;18.20;99.90
2487;DHT22;1254;49.144;8.212;2022-09-03T01:35:47;18.20;99.90
2487;DHT22;1254;49.144;8.212;2022-09-03T01:38:31;18.30;99.90
2487;DHT22;1254;49.144;8.212;2022-09-03T01:50:03;18.10;99.90
2487;DHT22;1254;49.144;8.212;2022-09-03T01:52:55;18.10;99.90
2487;DHT22;1254;49.144;8.212;2022-09-03T02:01:06;18.00;99.90
2487;DHT22;1254;49.144;8.212;2022-09-03T02:03:38;18.10;99.90
2487;DHT22;1254;49.144;8.212;2022-09-03T02:06:07;18.20;99.90
2487;DHT22;1254;49.144;8.212;2022-09-03T02:08:34;18.00;99.90
2487;DHT22;1254;49.144;8.212;2022-09-03T02:11:03;17.90;99.90
2487;DHT22;1254;49.144;8.212;2022-09-03T02:13:40;17.80;99.90
2487;DHT22;1254;49.144;8.212;2022-09-03T02:16:15;17.80;99.90
2487;DHT22;1254;49.144;8.212;2022-09-03T02:18:45;17.70;99.90
2487;DHT22;1254;49.144;8.212;2022-09-03T02:21:18;17.70;99.90
2487;DHT22;1254;49.144;8.212;2022-09-03T02:23:46;17.80;99.90
2487;DHT22;1254;49.144;8.212;2022-09-03T02:26:17;17.80;99.90
2487;DHT22;1254;49.144;8.212;2022-09-03T02:28:44;17.90;99.90
2487;DHT22;1254;49.144;8.212;2022-09-03T02:31:11;17.90;99.90
2487;DHT22;1254;49.144;8.212;2022-09-03T02:33:39;17.90;99.90
2487;DHT22;1254;49.144;8.212;2022-09-03T02:36:10;18.00;99.90
2487;DHT22;1254;49.144;8.212;2022-09-03T02:38:37;18.00;99.90
2487;DHT22;1254;49.144;8.212;2022-09-03T02:41:03;18.10;99.90
2487;DHT22;1254;49.144;8.212;2022-09-03T02:43:40;18.00;99.90
2487;DHT22;1254;49.144;8.212;2022-09-03T02:46:11;18.00;99.90
2487;DHT22;1254;49.144;8.212;2022-09-03T02:48:39;18.10;99.90
2487;DHT22;1254;49.144;8.212;2022-09-03T02:51:06;18.20;99.90
2487;DHT22;1254;49.144;8.212;2022-09-03T02:53:32;18.20;99.90
2487;DHT22;1254;49.144;8.212;2022-09-03T02:55:59;18.10;99.90
2487;DHT22;1254;49.144;8.212;2022-09-03T02:58:26;18.10;99.90
2487;DHT22;1254;49.144;8.212;2022-09-03T03:00:53;18.20;99.90
2487;DHT22;1254;49.144;8.212;2022-09-03T03:03:20;18.10;99.90
2487;DHT22;1254;49.144;8.212;2022-09-03T03:05:49;18.10;99.90
2487;DHT22;1254;49.144;8.212;2022-09-03T03:08:16;18.00;99.90
2487;DHT22;1254;49.144;8.212;2022-09-03T03:10:47;17.90;99.90
2487;DHT22;1254;49.144;8.212;2022-09-03T03:13:14;17.90;99.90
2487;DHT22;1254;49.144;8.212;2022-09-03T03:15:41;17.80;99.90
2487;DHT22;1254;49.144;8.212;2022-09-03T03:18:08;17.70;99.90
2487;DHT22;1254;49.144;8.212;2022-09-03T03:20:37;17.70;99.90
2487;DHT22;1254;49.144;8.212;2022-09-03T03:23:04;17.70;99.90
2487;DHT22;1254;49.144;8.212;2022-09-03T03:25:35;17.80;99.90
2487;DHT22;1254;49.144;8.212;2022-09-03T03:28:02;17.80;99.90
2487;DHT22;1254;49.144;8.212;2022-09-03T03:30:31;17.80;99.90
2487;DHT22;1254;49.144;8.212;2022-09-03T03:32:58;17.80;99.90
2487;DHT22;1254;49.144;8.212;2022-09-03T03:35:24;17.90;99.90
2487;DHT22;1254;49.144;8.212;2022-09-03T03:37:51;17.90;99.90
2487;DHT22;1254;49.144;8.212;2022-09-03T03:40:17;17.80;99.90
2487;DHT22;1254;49.144;8.212;2022-09-03T03:42:45;17.80;99.90
2487;DHT22;1254;49.144;8.212;2022-09-03T03:45:11;17.80;99.90
2487;DHT22;1254;49.144;8.212;2022-09-03T03:47:38;17.80;99.90
2487;DHT22;1254;49.144;8.212;2022-09-03T03:50:05;17.80;99.90
2487;DHT22;1254;49.144;8.212;2022-09-03T03:52:32;17.80;99.90
2487;DHT22;1254;49.144;8.212;2022-09-03T03:54:58;17.80;99.90
2487;DHT22;1254;49.144;8.212;2022-09-03T03:57:28;17.80;99.90
2487;DHT22;1254;49.144;8.212;2022-09-03T03:59:54;17.70;99.90
2487;DHT22;1254;49.144;8.212;2022-09-03T04:02:21;17.70;99.90
2487;DHT22;1254;49.144;8.212;2022-09-03T04:04:47;17.60;99.90
2487;DHT22;1254;49.144;8.212;2022-09-03T04:07:14;17.60;99.90
2487;DHT22;1254;49.144;8.212;2022-09-03T04:09:40;17.50;99.90
2487;DHT22;1254;49.144;8.212;2022-09-03T04:12:07;17.50;99.90
2487;DHT22;1254;49.144;8.212;2022-09-03T04:14:34;17.40;99.90
2487;DHT22;1254;49.144;8.212;2022-09-03T04:17:01;17.30;99.90
2487;DHT22;1254;49.144;8.212;2022-09-03T04:19:28;17.30;99.90
2487;DHT22;1254;49.144;8.212;2022-09-03T04:21:57;17.30;99.90
2487;DHT22;1254;49.144;8.212;2022-09-03T04:24:24;17.40;99.90
2487;DHT22;1254;49.144;8.212;2022-09-03T04:26:50;17.40;99.90
2487;DHT22;1254;49.144;8.212;2022-09-03T04:29:19;17.50;99.90
2487;DHT22;1254;49.144;8.212;2022-09-03T04:31:47;17.60;99.90
2487;DHT22;1254;49.144;8.212;2022-09-03T04:34:32;17.60;99.90
2487;DHT22;1254;49.144;8.212;2022-09-03T04:36:58;17.50;99.90
2487;DHT22;1254;49.144;8.212;2022-09-03T04:39:25;17.50;99.90
2487;DHT22;1254;49.144;8.212;2022-09-03T04:41:51;17.40;99.90
2487;DHT22;1254;49.144;8.212;2022-09-03T04:44:18;17.30;99.90
2487;DHT22;1254;49.144;8.212;2022-09-03T04:46:45;17.40;99.90
2487;DHT22;1254;49.144;8.212;2022-09-03T04:49:13;17.30;99.90
2487;DHT22;1254;49.144;8.212;2022-09-03T04:51:40;17.30;99.90
2487;DHT22;1254;49.144;8.212;2022-09-03T04:54:06;17.20;99.90
2487;DHT22;1254;49.144;8.212;2022-09-03T04:56:34;17.10;99.90
2487;DHT22;1254;49.144;8.212;2022-09-03T04:59:07;17.10;99.90
2487;DHT22;1254;49.144;8.212;2022-09-03T05:01:36;17.00;99.90
2487;DHT22;1254;49.144;8.212;2022-09-03T05:04:03;17.00;99.90
2487;DHT22;1254;49.144;8.212;2022-09-03T05:06:31;16.90;99.90
2487;DHT22;1254;49.144;8.212;2022-09-03T05:08:58;17.00;99.90
2487;DHT22;1254;49.144;8.212;2022-09-03T05:11:26;17.10;99.90
2487;DHT22;1254;49.144;8.212;2022-09-03T05:13:56;17.10;99.90
2487;DHT22;1254;49.144;8.212;2022-09-03T05:16:24;17.10;99.90
2487;DHT22;1254;49.144;8.212;2022-09-03T05:18:52;17.00;99.90
2487;DHT22;1254;49.144;8.212;2022-09-03T05:21:19;17.00;99.90
2487;DHT22;1254;49.144;8.212;2022-09-03T05:23:48;17.00;99.90
2487;DHT22;1254;49.144;8.212;2022-09-03T05:26:21;16.90;99.90
2487;DHT22;1254;49.144;8.212;2022-09-03T05:28:51;16.80;99.90
2487;DHT22;1254;49.144;8.212;2022-09-03T05:31:19;16.50;99.90
2487;DHT22;1254;49.144;8.212;2022-09-03T05:33:50;16.50;99.90
2487;DHT22;1254;49.144;8.212;2022-09-03T05:36:22;16.60;99.90
2487;DHT22;1254;49.144;8.212;2022-09-03T05:38:49;16.60;99.90
2487;DHT22;1254;49.144;8.212;2022-09-03T05:41:17;16.50;99.90
2487;DHT22;1254;49.144;8.212;2022-09-03T05:43:43;16.60;99.90
2487;DHT22;1254;49.144;8.212;2022-09-03T05:46:14;16.50;99.90
2487;DHT22;1254;49.144;8.212;2022-09-03T05:48:46;16.60;99.90
2487;DHT22;1254;49.144;8.212;2022-09-03T05:51:14;16.60;99.90
2487;DHT22;1254;49.144;8.212;2022-09-03T05:53:43;16.70;99.90
2487;DHT22;1254;49.144;8.212;2022-09-03T05:56:17;16.80;99.90
2487;DHT22;1254;49.144;8.212;2022-09-03T05:58:47;16.70;99.90
2487;DHT22;1254;49.144;8.212;2022-09-03T06:01:31;16.70;99.90
2487;DHT22;1254;49.144;8.212;2022-09-03T06:04:09;16.60;99.90
2487;DHT22;1254;49.144;8.212;2022-09-03T06:06:38;16.50;99.90
2487;DHT22;1254;49.144;8.212;2022-09-03T06:09:10;16.50;99.90
2487;DHT22;1254;49.144;8.212;2022-09-03T06:11:38;16.50;99.90
2487;DHT22;1254;49.144;8.212;2022-09-03T06:14:09;16.50;99.90
2487;DHT22;1254;49.144;8.212;2022-09-03T06:16:39;16.50;99.90
2487;DHT22;1254;49.144;8.212;2022-09-03T06:19:06;16.40;99.90
2487;DHT22;1254;49.144;8.212;2022-09-03T06:21:36;16.40;99.90
2487;DHT22;1254;49.144;8.212;2022-09-03T06:24:02;16.40;99.90
2487;DHT22;1254;49.144;8.212;2022-09-03T06:26:29;16.20;99.90
2487;DHT22;1254;49.144;8.212;2022-09-03T06:28:56;16.20;99.90
2487;DHT22;1254;49.144;8.212;2022-09-03T06:31:23;16.40;99.90
2487;DHT22;1254;49.144;8.212;2022-09-03T06:33:50;16.50;99.90
2487;DHT22;1254;49.144;8.212;2022-09-03T06:36:19;16.50;99.90
2487;DHT22;1254;49.144;8.212;2022-09-03T06:38:54;16.50;99.90
2487;DHT22;1254;49.144;8.212;2022-09-03T06:41:27;16.30;99.90
2487;DHT22;1254;49.144;8.212;2022-09-03T06:43:59;16.10;99.90
2487;DHT22;1254;49.144;8.212;2022-09-03T06:46:38;15.90;99.90
2487;DHT22;1254;49.144;8.212;2022-09-03T06:49:07;15.80;99.90
2487;DHT22;1254;49.144;8.212;2022-09-03T06:51:35;15.80;99.90
2487;DHT22;1254;49.144;8.212;2022-09-03T06:54:08;15.60;99.90
2487;DHT22;1254;49.144;8.212;2022-09-03T06:56:36;15.80;99.90
2487;DHT22;1254;49.144;8.212;2022-09-03T06:59:13;15.80;99.90
2487;DHT22;1254;49.144;8.212;2022-09-03T07:01:41;15.60;99.90
2487;DHT22;1254;49.144;8.212;2022-09-03T07:04:09;15.50;99.90
2487;DHT22;1254;49.144;8.212;2022-09-03T07:06:38;15.50;99.90
2487;DHT22;1254;49.144;8.212;2022-09-03T07:09:06;15.70;99.90
2487;DHT22;1254;49.144;8.212;2022-09-03T07:11:34;15.70;99.90
2487;DHT22;1254;49.144;8.212;2022-09-03T07:14:03;15.80;99.90
2487;DHT22;1254;49.144;8.212;2022-09-03T07:16:33;15.90;99.90
2487;DHT22;1254;49.144;8.212;2022-09-03T07:19:00;15.80;99.90
2487;DHT22;1254;49.144;8.212;2022-09-03T07:21:30;15.80;99.90
2487;DHT22;1254;49.144;8.212;2022-09-03T07:23:59;15.80;99.90
2487;DHT22;1254;49.144;8.212;2022-09-03T07:26:27;15.70;99.90
2487;DHT22;1254;49.144;8.212;2022-09-03T07:28:56;15.80;99.90
2487;DHT22;1254;49.144;8.212;2022-09-03T07:31:28;15.90;99.90
2487;DHT22;1254;49.144;8.212;2022-09-03T07:33:55;15.80;99.90
2487;DHT22;1254;49.144;8.212;2022-09-03T07:36:24;15.80;99.90
2487;DHT22;1254;49.144;8.212;2022-09-03T07:38:54;15.80;99.90
2487;DHT22;1254;49.144;8.212;2022-09-03T07:41:22;15.80;99.90
2487;DHT22;1254;49.144;8.212;2022-09-03T07:43:49;15.80;99.90
2487;DHT22;1254;49.144;8.212;2022-09-03T07:46:17;15.80;99.90
2487;DHT22;1254;49.144;8.212;2022-09-03T07:48:49;15.80;99.90
2487;DHT22;1254;49.144;8.212;2022-09-03T07:51:16;15.90;99.90
2487;DHT22;1254;49.144;8.212;2022-09-03T07:53:46;15.80;99.90
2487;DHT22;1254;49.144;8.212;2022-09-03T07:56:14;15.80;99.90
2487;DHT22;1254;49.144;8.212;2022-09-03T07:58:41;15.70;99.90
2487;DHT22;1254;49.144;8.212;2022-09-03T08:01:10;15.70;99.90
2487;DHT22;1254;49.144;8.212;2022-09-03T08:03:38;15.90;99.90
2487;DHT22;1254;49.144;8.212;2022-09-03T08:06:07;16.00;99.90
2487;DHT22;1254;49.144;8.212;2022-09-03T08:08:35;16.10;99.90
2487;DHT22;1254;49.144;8.212;2022-09-03T08:11:08;16.10;99.90
2487;DHT22;1254;49.144;8.212;2022-09-03T08:13:39;16.10;99.90
2487;DHT22;1254;49.144;8.212;2022-09-03T08:16:08;16.20;99.90
2487;DHT22;1254;49.144;8.212;2022-09-03T08:18:35;16.20;99.90
2487;DHT22;1254;49.144;8.212;2022-09-03T08:21:10;16.30;99.90
2487;DHT22;1254;49.144;8.212;2022-09-03T08:23:40;16.40;99.90
2487;DHT22;1254;49.144;8.212;2022-09-03T08:26:08;16.50;99.90
2487;DHT22;1254;49.144;8.212;2022-09-03T08:28:36;16.60;99.90
2487;DHT22;1254;49.144;8.212;2022-09-03T08:31:20;16.80;99.90
2487;DHT22;1254;49.144;8.212;2022-09-03T08:33:49;16.90;99.90
2487;DHT22;1254;49.144;8.212;2022-09-03T08:36:27;17.30;99.90
2487;DHT22;1254;49.144;8.212;2022-09-03T08:38:59;17.30;99.90
2487;DHT22;1254;49.144;8.212;2022-09-03T08:46:57;17.50;99.90
2487;DHT22;1254;49.144;8.212;2022-09-03T08:49:33;17.50;99.90
2487;DHT22;1254;49.144;8.212;2022-09-03T08:52:18;17.30;99.90
2487;DHT22;1254;49.144;8.212;2022-09-03T08:54:48;17.40;99.90
2487;DHT22;1254;49.144;8.212;2022-09-03T08:57:18;17.60;99.90
2487;DHT22;1254;49.144;8.212;2022-09-03T08:59:48;17.70;99.90
2487;DHT22;1254;49.144;8.212;2022-09-03T09:02:22;17.80;99.90
2487;DHT22;1254;49.144;8.212;2022-09-03T09:07:43;18.50;99.90
2487;DHT22;1254;49.144;8.212;2022-09-03T09:15:47;18.40;99.90
2487;DHT22;1254;49.144;8.212;2022-09-03T09:18:19;18.60;99.90
2487;DHT22;1254;49.144;8.212;2022-09-03T09:20:51;18.50;99.90
2487;DHT22;1254;49.144;8.212;2022-09-03T09:23:29;18.40;99.90
2487;DHT22;1254;49.144;8.212;2022-09-03T09:25:58;18.10;99.90
2487;DHT22;1254;49.144;8.212;2022-09-03T09:28:37;18.30;99.90
2487;DHT22;1254;49.144;8.212;2022-09-03T09:31:06;18.30;99.90
2487;DHT22;1254;49.144;8.212;2022-09-03T09:33:34;18.60;99.90
2487;DHT22;1254;49.144;8.212;2022-09-03T09:36:09;18.60;99.90
2487;DHT22;1254;49.144;8.212;2022-09-03T09:38:38;18.70;99.90
2487;DHT22;1254;49.144;8.212;2022-09-03T09:41:09;18.80;99.90
2487;DHT22;1254;49.144;8.212;2022-09-03T09:43:36;18.90;99.90
2487;DHT22;1254;49.144;8.212;2022-09-03T09:46:24;19.00;99.90
2487;DHT22;1254;49.144;8.212;2022-09-03T09:48:54;18.90;99.90
2487;DHT22;1254;49.144;8.212;2022-09-03T09:51:25;18.80;99.90
2487;DHT22;1254;49.144;8.212;2022-09-03T09:54:12;18.60;99.90
2487;DHT22;1254;49.144;8.212;2022-09-03T09:56:41;18.70;99.90
2487;DHT22;1254;49.144;8.212;2022-09-03T09:59:11;18.80;99.90
2487;DHT22;1254;49.144;8.212;2022-09-03T10:01:42;18.90;99.90
2487;DHT22;1254;49.144;8.212;2022-09-03T10:04:23;19.00;99.90
2487;DHT22;1254;49.144;8.212;2022-09-03T10:06:54;19.20;99.90
2487;DHT22;1254;49.144;8.212;2022-09-03T10:09:29;19.20;99.90
2487;DHT22;1254;49.144;8.212;2022-09-03T10:15:16;19.20;99.90
2487;DHT22;1254;49.144;8.212;2022-09-03T10:20:30;19.90;99.90
2487;DHT22;1254;49.144;8.212;2022-09-03T10:25:37;20.10;99.90
2487;DHT22;1254;49.144;8.212;2022-09-03T10:28:09;20.60;99.90
2487;DHT22;1254;49.144;8.212;2022-09-03T10:33:45;20.80;99.90
2487;DHT22;1254;49.144;8.212;2022-09-03T10:36:53;20.50;99.90
2487;DHT22;1254;49.144;8.212;2022-09-03T10:42:41;20.30;99.90
2487;DHT22;1254;49.144;8.212;2022-09-03T10:50:26;20.50;99.90
2487;DHT22;1254;49.144;8.212;2022-09-03T10:53:09;20.20;99.90
2487;DHT22;1254;49.144;8.212;2022-09-03T11:01:50;20.40;99.90
2487;DHT22;1254;49.144;8.212;2022-09-03T11:06:56;20.20;99.90
2487;DHT22;1254;49.144;8.212;2022-09-03T11:09:26;20.30;99.90
2487;DHT22;1254;49.144;8.212;2022-09-03T11:12:27;20.40;99.90
2487;DHT22;1254;49.144;8.212;2022-09-03T11:15:08;20.40;99.90
2487;DHT22;1254;49.144;8.212;2022-09-03T11:17:45;21.00;99.90
2487;DHT22;1254;49.144;8.212;2022-09-03T11:20:25;21.10;99.90
2487;DHT22;1254;49.144;8.212;2022-09-03T11:23:00;21.10;99.90
2487;DHT22;1254;49.144;8.212;2022-09-03T11:25:34;21.80;99.90
2487;DHT22;1254;49.144;8.212;2022-09-03T11:30:59;23.50;99.90
2487;DHT22;1254;49.144;8.212;2022-09-03T11:33:32;24.00;99.90
2487;DHT22;1254;49.144;8.212;2022-09-03T11:36:00;22.60;99.90
2487;DHT22;1254;49.144;8.212;2022-09-03T11:38:30;21.80;99.90
2487;DHT22;1254;49.144;8.212;2022-09-03T11:41:23;21.40;99.90
2487;DHT22;1254;49.144;8.212;2022-09-03T11:43:52;21.40;99.90
2487;DHT22;1254;49.144;8.212;2022-09-03T11:48:54;22.60;99.90
2487;DHT22;1254;49.144;8.212;2022-09-03T11:54:24;22.10;99.90
2487;DHT22;1254;49.144;8.212;2022-09-03T11:57:06;21.80;99.90
2487;DHT22;1254;49.144;8.212;2022-09-03T11:59:36;22.40;99.90
2487;DHT22;1254;49.144;8.212;2022-09-03T12:02:27;22.80;99.90
2487;DHT22;1254;49.144;8.212;2022-09-03T12:05:05;23.10;99.90
2487;DHT22;1254;49.144;8.212;2022-09-03T12:18:28;23.00;99.90
2487;DHT22;1254;49.144;8.212;2022-09-03T12:23:33;22.40;99.90
2487;DHT22;1254;49.144;8.212;2022-09-03T12:26:06;22.50;99.90
2487;DHT22;1254;49.144;8.212;2022-09-03T12:28:37;23.20;99.90
2487;DHT22;1254;49.144;8.212;2022-09-03T12:33:54;24.60;99.90
2487;DHT22;1254;49.144;8.212;2022-09-03T12:36:25;23.60;99.90
2487;DHT22;1254;49.144;8.212;2022-09-03T12:38:52;24.10;99.90
2487;DHT22;1254;49.144;8.212;2022-09-03T12:41:27;24.90;99.90
2487;DHT22;1254;49.144;8.212;2022-09-03T12:43:56;24.70;99.90
2487;DHT22;1254;49.144;8.212;2022-09-03T12:46:26;24.70;99.90
2487;DHT22;1254;49.144;8.212;2022-09-03T12:49:04;24.70;99.90
2487;DHT22;1254;49.144;8.212;2022-09-03T12:51:40;25.50;99.90
2487;DHT22;1254;49.144;8.212;2022-09-03T12:54:11;25.80;99.90
2487;DHT22;1254;49.144;8.212;2022-09-03T12:56:53;26.10;99.90
2487;DHT22;1254;49.144;8.212;2022-09-03T12:59:22;25.30;99.90
2487;DHT22;1254;49.144;8.212;2022-09-03T13:01:53;24.60;99.90
2487;DHT22;1254;49.144;8.212;2022-09-03T13:04:28;24.20;99.90
2487;DHT22;1254;49.144;8.212;2022-09-03T13:07:07;23.50;99.90
2487;DHT22;1254;49.144;8.212;2022-09-03T13:09:38;23.30;99.90
2487;DHT22;1254;49.144;8.212;2022-09-03T13:12:20;23.30;99.90
2487;DHT22;1254;49.144;8.212;2022-09-03T13:14:47;23.00;99.90
2487;DHT22;1254;49.144;8.212;2022-09-03T13:17:20;23.20;99.90
2487;DHT22;1254;49.144;8.212;2022-09-03T13:28:33;23.10;99.90
2487;DHT22;1254;49.144;8.212;2022-09-03T13:31:35;23.10;99.90
2487;DHT22;1254;49.144;8.212;2022-09-03T13:34:12;22.80;99.90
2487;DHT22;1254;49.144;8.212;2022-09-03T13:36:50;22.40;99.90
2487;DHT22;1254;49.144;8.212;2022-09-03T13:39:30;22.40;99.90
2487;DHT22;1254;49.144;8.212;2022-09-03T13:42:08;22.30;99.90
2487;DHT22;1254;49.144;8.212;2022-09-03T13:44:49;21.80;99.90
2487;DHT22;1254;49.144;8.212;2022-09-03T13:50:30;21.60;99.90
2487;DHT22;1254;49.144;8.212;2022-09-03T13:55:56;21.40;99.90
2487;DHT22;1254;49.144;8.212;2022-09-03T13:58:35;21.50;99.90
2487;DHT22;1254;49.144;8.212;2022-09-03T14:01:23;21.30;99.90
2487;DHT22;1254;49.144;8.212;2022-09-03T14:04:00;21.10;99.90
2487;DHT22;1254;49.144;8.212;2022-09-03T14:06:43;20.80;99.90
2487;DHT22;1254;49.144;8.212;2022-09-03T14:12:37;20.80;99.90
2487;DHT22;1254;49.144;8.212;2022-09-03T14:15:16;20.80;99.90
2487;DHT22;1254;49.144;8.212;2022-09-03T14:18:15;20.80;99.90
2487;DHT22;1254;49.144;8.212;2022-09-03T14:21:04;20.70;99.90
2487;DHT22;1254;49.144;8.212;2022-09-03T14:24:08;20.70;99.90
2487;DHT22;1254;49.144;8.212;2022-09-03T14:26:37;20.70;99.90
2487;DHT22;1254;49.144;8.212;2022-09-03T14:34:45;21.00;99.90
2487;DHT22;1254;49.144;8.212;2022-09-03T14:40:02;21.10;99.90
2487;DHT22;1254;49.144;8.212;2022-09-03T14:50:33;21.20;99.90
2487;DHT22;1254;49.144;8.212;2022-09-03T15:01:32;21.00;99.90
2487;DHT22;1254;49.144;8.212;2022-09-03T15:04:27;21.00;99.90
2487;DHT22;1254;49.144;8.212;2022-09-03T15:10:05;20.90;99.90
2487;DHT22;1254;49.144;8.212;2022-09-03T15:12:43;21.00;99.90
2487;DHT22;1254;49.144;8.212;2022-09-03T15:20:49;20.70;99.90
2487;DHT22;1254;49.144;8.212;2022-09-03T15:31:26;20.60;99.90
2487;DHT22;1254;49.144;8.212;2022-09-03T15:34:18;20.50;99.90
2487;DHT22;1254;49.144;8.212;2022-09-03T15:36:51;20.50;99.90
2487;DHT22;1254;49.144;8.212;2022-09-03T15:39:26;20.50;99.90
2487;DHT22;1254;49.144;8.212;2022-09-03T15:42:05;20.50;99.90
2487;DHT22;1254;49.144;8.212;2022-09-03T15:44:48;20.40;99.90
2487;DHT22;1254;49.144;8.212;2022-09-03T15:47:49;20.40;99.90
2487;DHT22;1254;49.144;8.212;2022-09-03T15:55:46;19.90;99.90
2487;DHT22;1254;49.144;8.212;2022-09-03T15:58:34;19.90;99.90
2487;DHT22;1254;49.144;8.212;2022-09-03T16:01:05;19.80;99.90
2487;DHT22;1254;49.144;8.212;2022-09-03T16:03:55;19.80;99.90
2487;DHT22;1254;49.144;8.212;2022-09-03T16:10:04;20.30;99.90
2487;DHT22;1254;49.144;8.212;2022-09-03T16:15:16;21.10;99.90
2487;DHT22;1254;49.144;8.212;2022-09-03T16:17:53;21.10;99.90
2487;DHT22;1254;49.144;8.212;2022-09-03T16:20:42;21.00;99.90
2487;DHT22;1254;49.144;8.212;2022-09-03T16:23:37;21.30;99.90
2487;DHT22;1254;49.144;8.212;2022-09-03T16:26:41;21.20;99.90
2487;DHT22;1254;49.144;8.212;2022-09-03T16:29:15;21.30;99.90
2487;DHT22;1254;49.144;8.212;2022-09-03T16:32:11;21.20;99.90
2487;DHT22;1254;49.144;8.212;2022-09-03T16:48:24;20.60;99.90
2487;DHT22;1254;49.144;8.212;2022-09-03T16:51:41;20.50;99.90
2487;DHT22;1254;49.144;8.212;2022-09-03T16:54:35;20.50;99.90
2487;DHT22;1254;49.144;8.212;2022-09-03T16:57:22;20.30;99.90
2487;DHT22;1254;49.144;8.212;2022-09-03T17:11:07;20.10;99.90
2487;DHT22;1254;49.144;8.212;2022-09-03T17:16:34;20.00;99.90
2487;DHT22;1254;49.144;8.212;2022-09-03T17:24:39;20.00;99.90
2487;DHT22;1254;49.144;8.212;2022-09-03T17:27:33;20.00;99.90
2487;DHT22;1254;49.144;8.212;2022-09-03T17:30:07;19.80;99.90
2487;DHT22;1254;49.144;8.212;2022-09-03T17:36:07;19.80;99.90
2487;DHT22;1254;49.144;8.212;2022-09-03T17:38:58;19.80;99.90
2487;DHT22;1254;49.144;8.212;2022-09-03T17:41:44;19.80;99.90
2487;DHT22;1254;49.144;8.212;2022-09-03T17:49:46;19.70;99.90
2487;DHT22;1254;49.144;8.212;2022-09-03T17:52:22;19.60;99.90
2487;DHT22;1254;49.144;8.212;2022-09-03T17:54:56;19.50;99.90
2487;DHT22;1254;49.144;8.212;2022-09-03T17:57:40;19.50;99.90
2487;DHT22;1254;49.144;8.212;2022-09-03T18:00:24;19.40;99.90
2487;DHT22;1254;49.144;8.212;2022-09-03T18:03:04;19.40;99.90
2487;DHT22;1254;49.144;8.212;2022-09-03T18:05:46;19.30;99.90
2487;DHT22;1254;49.144;8.212;2022-09-03T18:08:23;19.20;99.90
2487;DHT22;1254;49.144;8.212;2022-09-03T18:11:06;19.20;99.90
2487;DHT22;1254;49.144;8.212;2022-09-03T18:16:27;19.10;99.90
2487;DHT22;1254;49.144;8.212;2022-09-03T18:19:09;19.00;99.90
2487;DHT22;1254;49.144;8.212;2022-09-03T18:21:46;19.00;99.90
2487;DHT22;1254;49.144;8.212;2022-09-03T18:24:33;18.90;99.90
2487;DHT22;1254;49.144;8.212;2022-09-03T18:27:26;18.90;99.90
2487;DHT22;1254;49.144;8.212;2022-09-03T18:30:13;18.80;99.90
2487;DHT22;1254;49.144;8.212;2022-09-03T18:32:58;18.80;99.90
2487;DHT22;1254;49.144;8.212;2022-09-03T18:35:44;18.80;99.90
2487;DHT22;1254;49.144;8.212;2022-09-03T18:38:32;18.70;99.90
2487;DHT22;1254;49.144;8.212;2022-09-03T18:41:43;18.80;99.90
2487;DHT22;1254;49.144;8.212;2022-09-03T18:56:52;18.60;99.90
2487;DHT22;1254;49.144;8.212;2022-09-03T19:00:02;18.60;99.90
2487;DHT22;1254;49.144;8.212;2022-09-03T19:03:14;18.50;99.90
2487;DHT22;1254;49.144;8.212;2022-09-03T19:06:25;18.50;99.90
2487;DHT22;1254;49.144;8.212;2022-09-03T19:09:23;18.50;99.90
2487;DHT22;1254;49.144;8.212;2022-09-03T19:15:50;18.50;99.90
2487;DHT22;1254;49.144;8.212;2022-09-03T19:22:09;18.60;99.90
2487;DHT22;1254;49.144;8.212;2022-09-03T19:25:09;18.60;99.90
2487;DHT22;1254;49.144;8.212;2022-09-03T19:28:13;18.60;99.90
2487;DHT22;1254;49.144;8.212;2022-09-03T19:37:27;18.60;99.90
2487;DHT22;1254;49.144;8.212;2022-09-03T19:46:53;18.50;99.90
2487;DHT22;1254;49.144;8.212;2022-09-03T19:50:15;18.50;99.90
2487;DHT22;1254;49.144;8.212;2022-09-03T19:53:10;18.50;99.90
2487;DHT22;1254;49.144;8.212;2022-09-03T19:55:59;18.40;99.90
2487;DHT22;1254;49.144;8.212;2022-09-03T19:58:49;18.40;99.90
2487;DHT22;1254;49.144;8.212;2022-09-03T20:01:37;18.40;99.90
2487;DHT22;1254;49.144;8.212;2022-09-03T20:04:37;18.40;99.90
2487;DHT22;1254;49.144;8.212;2022-09-03T20:07:23;18.30;99.90
2487;DHT22;1254;49.144;8.212;2022-09-03T20:10:11;18.20;99.90
2487;DHT22;1254;49.144;8.212;2022-09-03T20:16:05;18.10;99.90
2487;DHT22;1254;49.144;8.212;2022-09-03T20:18:48;18.10;99.90
2487;DHT22;1254;49.144;8.212;2022-09-03T20:22:17;18.00;99.90
2487;DHT22;1254;49.144;8.212;2022-09-03T20:30:06;18.00;99.90
2487;DHT22;1254;49.144;8.212;2022-09-03T20:35:48;17.90;99.90
2487;DHT22;1254;49.144;8.212;2022-09-03T20:41:21;17.70;99.90
2487;DHT22;1254;49.144;8.212;2022-09-03T20:47:29;17.70;99.90
2487;DHT22;1254;49.144;8.212;2022-09-03T20:49:52;17.60;99.90
2487;DHT22;1254;49.144;8.212;2022-09-03T20:55:14;17.60;99.90
2487;DHT22;1254;49.144;8.212;2022-09-03T21:00:20;17.40;99.90
2487;DHT22;1254;49.144;8.212;2022-09-03T21:05:33;17.30;99.90
2487;DHT22;1254;49.144;8.212;2022-09-03T21:11:13;17.30;99.90
2487;DHT22;1254;49.144;8.212;2022-09-03T21:16:58;17.20;99.90
2487;DHT22;1254;49.144;8.212;2022-09-03T21:22:24;17.20;99.90
2487;DHT22;1254;49.144;8.212;2022-09-03T21:25:00;17.20;99.90
2487;DHT22;1254;49.144;8.212;2022-09-03T21:27:48;17.10;99.90
2487;DHT22;1254;49.144;8.212;2022-09-03T21:30:18;17.10;99.90
2487;DHT22;1254;49.144;8.212;2022-09-03T21:33:13;17.00;99.90
2487;DHT22;1254;49.144;8.212;2022-09-03T21:35:53;16.90;99.90
2487;DHT22;1254;49.144;8.212;2022-09-03T21:38:26;16.80;99.90
2487;DHT22;1254;49.144;8.212;2022-09-03T21:41:16;16.80;99.90
2487;DHT22;1254;49.144;8.212;2022-09-03T21:44:00;16.70;99.90
2487;DHT22;1254;49.144;8.212;2022-09-03T21:47:03;16.60;99.90
2487;DHT22;1254;49.144;8.212;2022-09-03T21:50:04;16.50;99.90
2487;DHT22;1254;49.144;8.212;2022-09-03T21:53:04;16.50;99.90